Time;durP1;ratioP1;P1;durP2;ratioP2;P2;SDS_P1;SDS_P2;PMS_P1;PMS_P2;Temp;Humidity;BMP_temperature;BMP_pressure;BME280_temperature;BME280_humidity;BME280_pressure;Samples;Min_cycle;Max_cycle;Signal;HPM_P1;HPM_P2
2022/12/08 00:02:19;;;;;;;18.10;15.27;;;1.50;99.90;;;;;;4979883;28;20286;-82
2022/12/08 00:10:12;;;;;;;18.00;14.73;;;1.60;99.90;;;;;;4977791;28;20333;-84
2022/12/08 00:12:38;;;;;;;17.80;14.90;;;1.60;99.90;;;;;;4999128;28;20239;-84
2022/12/08 00:15:04;;;;;;;18.40;15.70;;;1.70;99.90;;;;;;4987517;28;20193;-83
2022/12/08 00:17:30;;;;;;;18.83;14.83;;;1.70;99.90;;;;;;4984787;28;20179;-81
2022/12/08 00:19:55;;;;;;;19.70;16.17;;;1.70;99.90;;;;;;4982014;28;20285;-84
2022/12/08 00:22:21;;;;;;;18.97;14.70;;;1.70;99.90;;;;;;4979269;28;20194;-84
2022/12/08 00:24:47;;;;;;;23.30;16.40;;;1.70;99.90;;;;;;4983693;28;20211;-83
2022/12/08 00:27:14;;;;;;;21.03;16.73;;;1.60;99.90;;;;;;4978013;28;20195;-84
2022/12/08 00:29:42;;;;;;;19.80;15.80;;;1.70;99.90;;;;;;4980930;28;20204;-83
2022/12/08 00:32:07;;;;;;;19.77;15.07;;;1.70;99.90;;;;;;4989720;28;20241;-84
2022/12/08 00:34:33;;;;;;;24.60;15.97;;;1.70;99.90;;;;;;4976823;28;20282;-83
2022/12/08 00:36:59;;;;;;;20.37;16.40;;;1.70;99.90;;;;;;4977219;28;20182;-84
2022/12/08 00:39:25;;;;;;;23.67;16.80;;;1.70;99.90;;;;;;4982765;28;20248;-83
2022/12/08 00:44:34;;;;;;;20.13;16.37;;;1.70;99.90;;;;;;4974982;28;20221;-84
2022/12/08 00:47:00;;;;;;;19.33;14.73;;;1.80;99.90;;;;;;4983708;28;20195;-85
2022/12/08 00:49:25;;;;;;;19.33;14.60;;;1.80;99.90;;;;;;4984564;28;20762;-84
2022/12/08 00:51:51;;;;;;;21.33;15.70;;;1.80;99.90;;;;;;4991626;28;20601;-84
2022/12/08 00:54:17;;;;;;;19.53;15.20;;;1.80;99.90;;;;;;4985401;28;20222;-82
2022/12/08 00:56:42;;;;;;;19.10;15.13;;;1.80;99.90;;;;;;4980915;28;20212;-83
2022/12/08 00:59:08;;;;;;;19.63;16.17;;;1.90;99.90;;;;;;4976706;28;20613;-81
2022/12/08 01:01:35;;;;;;;18.63;15.33;;;1.80;99.90;;;;;;4977385;28;20202;-85
2022/12/08 01:04:05;;;;;;;20.40;15.50;;;1.70;99.90;;;;;;4979597;28;20597;-82
2022/12/08 01:06:33;;;;;;;17.77;14.53;;;1.70;99.90;;;;;;4976552;28;20191;-84
2022/12/08 01:09:03;;;;;;;18.30;14.93;;;1.70;99.90;;;;;;4972237;28;20244;-84
2022/12/08 01:11:28;;;;;;;18.53;14.57;;;1.70;99.90;;;;;;4975934;28;20248;-82
2022/12/08 01:13:54;;;;;;;17.43;14.23;;;1.80;99.90;;;;;;4980815;28;20214;-82
2022/12/08 01:16:29;;;;;;;20.47;16.00;;;1.90;99.90;;;;;;4980794;28;20207;-83
2022/12/08 01:18:56;;;;;;;17.47;14.03;;;1.80;99.90;;;;;;4972888;28;20229;-83
2022/12/08 01:21:22;;;;;;;15.60;12.53;;;1.90;99.90;;;;;;4989951;28;20209;-82
2022/12/08 01:23:48;;;;;;;17.67;14.33;;;2.10;99.90;;;;;;4979233;28;20218;-85
2022/12/08 01:26:15;;;;;;;15.50;13.77;;;2.00;99.90;;;;;;4976574;28;20190;-84
2022/12/08 01:28:41;;;;;;;16.53;13.73;;;1.90;99.90;;;;;;4986473;28;20202;-83
2022/12/08 01:31:15;;;;;;;20.80;15.43;;;1.80;99.90;;;;;;4990344;28;20229;-85
2022/12/08 01:33:41;;;;;;;18.43;14.57;;;1.70;99.90;;;;;;4983737;28;20214;-80
2022/12/08 01:36:16;;;;;;;17.90;14.50;;;1.70;99.90;;;;;;4975658;28;20282;-81
2022/12/08 01:38:42;;;;;;;18.57;14.50;;;1.70;99.90;;;;;;4989078;28;20794;-83
2022/12/08 01:41:12;;;;;;;17.70;13.80;;;1.60;99.90;;;;;;4986114;28;20206;-81
2022/12/08 01:44:07;;;;;;;17.47;14.80;;;1.60;99.90;;;;;;4976087;28;20258;-84
2022/12/08 01:46:35;;;;;;;17.30;14.33;;;1.50;99.90;;;;;;4976232;28;20579;-83
2022/12/08 01:49:03;;;;;;;19.17;14.47;;;1.50;99.90;;;;;;4992166;28;20222;-84
2022/12/08 01:51:32;;;;;;;17.37;14.30;;;1.40;99.90;;;;;;4984456;28;20218;-82
2022/12/08 01:53:58;;;;;;;18.43;14.33;;;1.40;99.90;;;;;;4978656;28;20219;-85
2022/12/08 01:56:42;;;;;;;18.10;14.60;;;1.40;99.90;;;;;;4977085;28;20205;-82
2022/12/08 01:59:09;;;;;;;17.63;13.67;;;1.30;99.90;;;;;;4976473;28;20407;-85
2022/12/08 02:01:35;;;;;;;18.30;13.87;;;1.40;99.90;;;;;;4976175;28;20183;-80
2022/12/08 02:04:03;;;;;;;17.50;12.77;;;1.40;99.90;;;;;;4977155;28;20306;-82
2022/12/08 02:06:33;;;;;;;15.73;13.53;;;1.40;99.90;;;;;;4983024;28;20202;-83
2022/12/08 02:09:02;;;;;;;16.27;13.40;;;1.40;99.90;;;;;;4980028;28;20218;-83
2022/12/08 02:11:28;;;;;;;15.97;13.37;;;1.40;99.90;;;;;;4984083;28;20593;-83
2022/12/08 02:13:56;;;;;;;17.00;13.10;;;1.40;99.90;;;;;;4980306;28;20277;-84
2022/12/08 02:16:24;;;;;;;17.63;13.50;;;1.30;99.90;;;;;;4989935;28;20272;-82
2022/12/08 02:18:58;;;;;;;17.00;13.50;;;1.40;99.90;;;;;;4974657;28;20209;-83
2022/12/08 02:21:55;;;;;;;17.23;13.00;;;1.40;99.90;;;;;;4971701;28;20660;-84
2022/12/08 02:24:26;;;;;;;19.53;13.80;;;1.30;99.90;;;;;;4978887;28;20219;-82
2022/12/08 02:27:01;;;;;;;16.43;12.27;;;1.40;99.90;;;;;;4988800;28;20198;-82
2022/12/08 02:29:57;;;;;;;15.47;12.67;;;1.30;99.90;;;;;;4972234;28;20194;-84
2022/12/08 02:32:55;;;;;;;17.70;12.53;;;1.30;99.90;;;;;;4974853;28;20193;-84
2022/12/08 02:35:30;;;;;;;15.47;12.70;;;1.20;99.90;;;;;;4992846;28;20356;-83
2022/12/08 02:38:05;;;;;;;17.70;12.93;;;1.30;99.90;;;;;;4975264;28;20186;-82
2022/12/08 02:40:43;;;;;;;18.50;13.03;;;1.30;99.90;;;;;;4984104;28;20221;-83
2022/12/08 02:43:13;;;;;;;16.80;12.37;;;1.20;99.90;;;;;;4977269;28;20219;-84
2022/12/08 02:45:47;;;;;;;15.47;12.53;;;1.30;99.90;;;;;;4990641;28;20200;-83
2022/12/08 02:48:14;;;;;;;17.13;12.87;;;1.40;99.90;;;;;;4979604;28;20186;-82
2022/12/08 02:50:39;;;;;;;16.30;12.33;;;1.50;99.90;;;;;;5005307;28;20313;-84
2022/12/08 02:53:05;;;;;;;15.57;12.17;;;1.50;99.90;;;;;;4981859;28;20236;-83
2022/12/08 02:56:05;;;;;;;14.87;12.73;;;1.40;99.90;;;;;;4973528;28;20245;-83
2022/12/08 02:58:50;;;;;;;16.20;12.70;;;1.40;99.90;;;;;;4983419;28;20179;-82
2022/12/08 03:01:18;;;;;;;14.77;12.90;;;1.40;99.90;;;;;;4973302;28;20221;-80
2022/12/08 03:03:55;;;;;;;16.57;12.27;;;1.50;99.90;;;;;;4975619;28;20297;-83
2022/12/08 03:06:31;;;;;;;16.13;12.20;;;1.50;99.90;;;;;;4974956;28;20298;-83
2022/12/08 03:09:16;;;;;;;16.43;12.33;;;1.40;99.90;;;;;;4983669;28;20191;-83
2022/12/08 03:11:48;;;;;;;15.07;12.40;;;1.60;99.90;;;;;;4973359;28;20572;-83
2022/12/08 03:14:16;;;;;;;15.23;12.40;;;1.60;99.90;;;;;;4974569;28;20211;-82
2022/12/08 03:16:46;;;;;;;13.93;11.33;;;1.50;99.90;;;;;;4975439;28;20183;-81
2022/12/08 03:19:21;;;;;;;14.43;11.37;;;1.50;99.90;;;;;;4990701;28;20214;-81
2022/12/08 03:21:51;;;;;;;13.17;11.07;;;1.60;99.90;;;;;;4982665;28;20193;-81
2022/12/08 03:24:18;;;;;;;14.07;10.70;;;1.80;99.90;;;;;;5003049;28;20259;-84
2022/12/08 03:26:56;;;;;;;13.73;11.13;;;2.00;99.90;;;;;;4985143;28;20190;-81
2022/12/08 03:29:22;;;;;;;12.10;10.83;;;2.10;99.90;;;;;;4990756;28;20216;-83
2022/12/08 03:31:55;;;;;;;14.47;11.67;;;2.10;99.90;;;;;;4989016;28;20259;-81
2022/12/08 03:34:24;;;;;;;13.20;10.50;;;2.20;99.90;;;;;;5007485;28;20206;-83
2022/12/08 03:36:50;;;;;;;13.30;11.90;;;2.10;99.90;;;;;;4977352;28;20194;-83
2022/12/08 03:39:15;;;;;;;14.20;11.57;;;2.10;99.90;;;;;;4982489;28;20190;-83
2022/12/08 03:41:41;;;;;;;13.93;11.67;;;2.10;99.90;;;;;;4980162;28;20179;-82
2022/12/08 03:44:07;;;;;;;14.87;12.50;;;2.10;99.90;;;;;;4987540;28;20221;-85
2022/12/08 03:46:32;;;;;;;14.20;12.03;;;2.10;99.90;;;;;;4988048;28;20187;-83
2022/12/08 03:48:58;;;;;;;13.23;11.40;;;1.90;99.90;;;;;;4992240;28;20606;-84
2022/12/08 03:51:24;;;;;;;12.20;10.17;;;1.90;99.90;;;;;;4976510;28;20282;-82
2022/12/08 03:53:50;;;;;;;11.97;10.77;;;2.00;99.90;;;;;;4976030;28;20270;-83
2022/12/08 03:56:37;;;;;;;13.37;11.50;;;2.10;99.90;;;;;;4976879;28;20216;-84
2022/12/08 03:59:03;;;;;;;14.10;11.50;;;2.10;99.90;;;;;;4978285;28;20211;-82
2022/12/08 04:01:29;;;;;;;15.70;11.90;;;1.90;99.90;;;;;;4974350;28;20542;-83
2022/12/08 04:03:55;;;;;;;16.30;13.10;;;1.60;99.90;;;;;;4973843;28;20306;-82
2022/12/08 04:06:21;;;;;;;16.17;12.90;;;1.50;99.90;;;;;;4973811;28;20190;-81
2022/12/08 04:08:48;;;;;;;15.80;12.57;;;1.30;99.90;;;;;;4972970;28;20182;-83
2022/12/08 04:11:14;;;;;;;14.83;12.63;;;1.40;99.90;;;;;;4974282;28;20217;-83
2022/12/08 04:13:40;;;;;;;19.13;12.70;;;1.30;99.90;;;;;;4988670;28;20210;-84
2022/12/08 04:16:07;;;;;;;15.27;13.20;;;1.20;99.90;;;;;;4980544;28;20269;-83
2022/12/08 04:18:34;;;;;;;18.20;13.20;;;1.10;99.90;;;;;;4971682;28;20187;-82
2022/12/08 04:21:00;;;;;;;17.07;13.13;;;1.10;99.90;;;;;;4974397;28;20202;-84
2022/12/08 04:23:26;;;;;;;15.43;12.87;;;1.00;99.90;;;;;;4980220;28;20222;-83
2022/12/08 04:25:52;;;;;;;18.73;12.97;;;1.00;99.90;;;;;;4974115;28;20283;-82
2022/12/08 04:28:18;;;;;;;15.97;12.60;;;0.90;99.90;;;;;;4979748;28;20201;-82
2022/12/08 04:30:44;;;;;;;19.27;14.33;;;1.00;99.90;;;;;;4980098;28;20692;-83
2022/12/08 04:33:09;;;;;;;15.40;12.03;;;1.10;99.90;;;;;;4980448;28;20293;-83
2022/12/08 04:35:35;;;;;;;15.10;12.33;;;1.30;99.90;;;;;;4978306;28;20194;-82
2022/12/08 04:38:01;;;;;;;14.47;12.20;;;1.30;99.90;;;;;;4991931;28;20191;-83
2022/12/08 04:40:27;;;;;;;12.53;11.20;;;1.40;99.90;;;;;;4987104;28;20247;-85
2022/12/08 04:42:52;;;;;;;13.90;11.50;;;1.50;99.90;;;;;;4989317;28;20207;-82
2022/12/08 04:45:18;;;;;;;15.73;11.70;;;1.70;99.90;;;;;;4990910;28;20653;-83
2022/12/08 04:47:44;;;;;;;12.63;10.80;;;1.80;99.90;;;;;;4983792;28;20285;-87
2022/12/08 04:50:10;;;;;;;16.03;12.03;;;2.00;99.90;;;;;;4982065;28;20210;-84
2022/12/08 04:52:36;;;;;;;13.10;10.57;;;2.00;99.90;;;;;;4984261;28;20382;-83
2022/12/08 04:55:02;;;;;;;16.63;13.47;;;2.00;99.90;;;;;;4983700;28;20211;-85
2022/12/08 04:57:27;;;;;;;14.97;12.70;;;1.80;99.90;;;;;;4978869;28;20187;-84
2022/12/08 04:59:53;;;;;;;15.60;12.40;;;1.60;99.90;;;;;;4973861;28;20243;-81
2022/12/08 05:02:19;;;;;;;14.03;12.23;;;1.40;99.90;;;;;;4975961;28;20375;-83
2022/12/08 05:04:44;;;;;;;19.37;14.00;;;1.30;99.90;;;;;;4984172;28;20206;-81
2022/12/08 05:07:10;;;;;;;16.97;12.13;;;1.20;99.90;;;;;;4986327;28;20221;-84
2022/12/08 05:09:36;;;;;;;15.10;12.00;;;1.20;99.90;;;;;;4979143;28;20214;-85
2022/12/08 05:12:02;;;;;;;14.57;11.80;;;1.20;99.90;;;;;;4981191;28;20191;-83
2022/12/08 05:14:28;;;;;;;16.83;12.40;;;1.40;99.90;;;;;;4983747;28;20203;-85
2022/12/08 05:16:53;;;;;;;90.97;67.20;;;1.60;99.90;;;;;;4978282;28;20189;-83
2022/12/08 05:19:19;;;;;;;41.60;30.77;;;1.60;99.90;;;;;;4976346;28;20206;-83
2022/12/08 05:21:45;;;;;;;31.33;23.60;;;1.70;99.90;;;;;;4980703;28;20194;-84
2022/12/08 05:24:10;;;;;;;27.83;22.83;;;1.70;99.90;;;;;;4987002;28;20237;-85
2022/12/08 05:26:36;;;;;;;15.53;12.30;;;1.80;99.90;;;;;;4981592;28;20194;-82
2022/12/08 05:29:02;;;;;;;18.77;14.93;;;1.80;99.90;;;;;;4980783;28;20282;-83
2022/12/08 05:31:27;;;;;;;18.63;13.53;;;1.80;99.90;;;;;;5005115;28;20226;-82
2022/12/08 05:33:53;;;;;;;17.50;12.83;;;1.70;99.90;;;;;;4976302;28;20238;-84
2022/12/08 05:36:19;;;;;;;15.80;12.97;;;1.60;99.90;;;;;;4976142;28;20667;-82
2022/12/08 05:38:45;;;;;;;19.20;14.30;;;1.50;99.90;;;;;;4981465;28;20197;-82
2022/12/08 05:41:19;;;;;;;20.13;13.57;;;1.40;99.90;;;;;;4992684;28;20225;-83
2022/12/08 05:43:45;;;;;;;17.87;13.80;;;1.40;99.90;;;;;;4976243;28;20238;-82
2022/12/08 05:46:11;;;;;;;19.53;15.67;;;1.30;99.90;;;;;;4979062;28;20218;-83
2022/12/08 05:48:37;;;;;;;20.97;15.80;;;1.20;99.90;;;;;;4982070;28;20194;-84
2022/12/08 05:51:04;;;;;;;20.63;16.37;;;1.00;99.90;;;;;;4991408;28;20736;-84
2022/12/08 05:53:30;;;;;;;22.23;15.97;;;0.90;99.90;;;;;;4981133;28;20265;-83
2022/12/08 05:55:55;;;;;;;44.80;32.63;;;1.00;99.90;;;;;;4979712;28;20199;-84
2022/12/08 05:58:22;;;;;;;20.87;16.07;;;1.20;99.90;;;;;;4977395;28;20234;-84
2022/12/08 06:00:49;;;;;;;21.33;15.17;;;1.40;99.90;;;;;;4974634;28;20187;-84
2022/12/08 06:03:16;;;;;;;20.20;15.00;;;1.40;99.90;;;;;;4975313;28;20298;-83
2022/12/08 06:05:43;;;;;;;17.90;14.77;;;1.50;99.90;;;;;;4979209;28;20614;-81
2022/12/08 06:08:09;;;;;;;21.07;16.77;;;1.40;99.90;;;;;;4991624;28;20190;-83
2022/12/08 06:10:37;;;;;;;22.23;16.77;;;1.20;99.90;;;;;;4975967;28;20569;-82
2022/12/08 06:13:02;;;;;;;23.00;17.40;;;1.00;99.90;;;;;;4980292;28;20215;-84
2022/12/08 06:15:28;;;;;;;24.90;17.60;;;1.00;99.90;;;;;;4977638;28;20237;-80
2022/12/08 06:17:54;;;;;;;24.57;16.50;;;0.90;99.90;;;;;;4993775;28;20206;-82
2022/12/08 06:20:19;;;;;;;23.23;16.53;;;0.90;99.90;;;;;;4994650;28;20206;-82
2022/12/08 06:22:45;;;;;;;23.53;18.30;;;1.10;99.90;;;;;;4980100;28;20537;-81
2022/12/08 06:25:10;;;;;;;22.47;16.80;;;1.00;99.90;;;;;;5001644;28;20305;-84
2022/12/08 06:27:36;;;;;;;21.93;16.77;;;1.10;99.90;;;;;;5001142;28;20190;-85
2022/12/08 06:30:02;;;;;;;25.63;17.13;;;1.20;99.90;;;;;;4995941;28;20281;-84
2022/12/08 06:32:29;;;;;;;29.83;17.17;;;1.20;99.90;;;;;;4972135;28;20660;-84
2022/12/08 06:34:55;;;;;;;22.63;16.37;;;1.20;99.90;;;;;;4982308;28;20206;-81
2022/12/08 06:37:20;;;;;;;23.23;16.97;;;1.10;99.90;;;;;;4983662;28;20205;-83
2022/12/08 06:39:46;;;;;;;25.43;18.20;;;0.90;99.90;;;;;;4981927;28;20642;-84
2022/12/08 06:44:56;;;;;;;21.90;15.67;;;1.00;99.90;;;;;;4984309;28;20270;-83
2022/12/08 06:47:21;;;;;;;20.37;15.90;;;1.10;99.90;;;;;;4986785;28;20222;-83
2022/12/08 06:49:47;;;;;;;20.77;14.53;;;1.20;99.90;;;;;;4980938;28;20286;-82
2022/12/08 06:52:13;;;;;;;19.27;14.93;;;1.30;99.90;;;;;;4974142;28;20214;-83
2022/12/08 06:54:39;;;;;;;20.93;15.00;;;1.30;99.90;;;;;;4976442;28;20270;-82
2022/12/08 06:57:04;;;;;;;22.20;16.10;;;1.40;99.90;;;;;;4973412;28;20186;-83
2022/12/08 06:59:30;;;;;;;25.10;16.87;;;1.30;99.90;;;;;;4976759;28;20194;-83
2022/12/08 07:01:56;;;;;;;22.43;15.90;;;1.30;99.90;;;;;;4977896;28;20549;-82
2022/12/08 07:04:21;;;;;;;22.33;15.47;;;1.40;99.90;;;;;;4974651;28;20945;-83
2022/12/08 07:06:47;;;;;;;18.83;15.53;;;1.50;99.90;;;;;;4973989;28;20272;-84
2022/12/08 07:09:13;;;;;;;17.40;14.73;;;1.50;99.90;;;;;;4990267;28;20671;-82
2022/12/08 07:11:38;;;;;;;19.83;15.83;;;1.50;99.90;;;;;;4980128;28;20218;-83
2022/12/08 07:14:04;;;;;;;17.77;14.23;;;1.50;99.90;;;;;;4977423;28;20206;-83
2022/12/08 07:16:30;;;;;;;19.00;15.40;;;1.50;99.90;;;;;;4973259;28;20230;-83
2022/12/08 07:18:56;;;;;;;19.90;15.37;;;1.40;99.90;;;;;;4981968;28;20301;-83
2022/12/08 07:21:22;;;;;;;21.03;14.50;;;1.40;99.90;;;;;;4974494;28;20202;-83
2022/12/08 07:23:49;;;;;;;17.03;13.53;;;1.40;99.90;;;;;;4972907;28;20219;-83
2022/12/08 07:26:15;;;;;;;18.47;14.50;;;1.40;99.90;;;;;;4978398;28;20623;-83
2022/12/08 07:28:41;;;;;;;17.37;14.53;;;1.50;99.90;;;;;;4980583;28;20218;-83
2022/12/08 07:31:15;;;;;;;20.63;14.80;;;1.50;99.90;;;;;;4977171;28;20214;-83
2022/12/08 07:33:40;;;;;;;19.50;15.13;;;1.40;99.90;;;;;;4976912;28;20294;-84
2022/12/08 07:36:06;;;;;;;22.27;16.57;;;1.20;99.90;;;;;;4977647;28;20210;-81
2022/12/08 07:38:32;;;;;;;22.63;15.67;;;1.20;99.90;;;;;;4985549;28;20748;-81
2022/12/08 07:40:58;;;;;;;18.33;14.27;;;1.20;99.90;;;;;;4980865;28;20182;-84
2022/12/08 07:43:24;;;;;;;20.43;15.47;;;1.10;99.90;;;;;;4976819;28;20219;-83
2022/12/08 07:45:50;;;;;;;24.23;16.23;;;1.10;99.90;;;;;;4986256;28;20198;-82
2022/12/08 07:48:16;;;;;;;21.47;16.20;;;1.20;99.90;;;;;;4973511;28;20195;-82
2022/12/08 07:50:42;;;;;;;24.37;16.83;;;1.10;99.90;;;;;;4977305;28;20255;-83
2022/12/08 07:53:08;;;;;;;22.60;17.17;;;1.10;99.90;;;;;;4976738;28;20277;-82
2022/12/08 07:55:37;;;;;;;21.37;17.03;;;1.00;99.90;;;;;;4975961;28;20261;-82
2022/12/08 07:58:03;;;;;;;23.07;19.13;;;1.00;99.90;;;;;;4980092;28;20179;-82
2022/12/08 08:00:29;;;;;;;21.87;18.70;;;1.10;99.90;;;;;;4978597;28;20194;-82
2022/12/08 08:02:54;;;;;;;28.37;20.83;;;1.00;99.90;;;;;;4978306;28;20191;-82
2022/12/08 08:05:24;;;;;;;25.00;19.27;;;1.00;99.90;;;;;;4975713;28;20198;-82
2022/12/08 08:07:50;;;;;;;29.13;20.10;;;1.00;99.90;;;;;;4979317;28;20202;-83
2022/12/08 08:10:15;;;;;;;27.83;19.73;;;0.90;99.90;;;;;;4976243;28;20583;-82
2022/12/08 08:12:41;;;;;;;25.43;19.17;;;0.80;99.90;;;;;;4974702;28;20182;-82
2022/12/08 08:15:08;;;;;;;25.43;17.70;;;0.90;99.90;;;;;;4974880;28;20273;-82
2022/12/08 08:17:36;;;;;;;25.93;18.77;;;1.00;99.90;;;;;;4980112;28;20193;-82
2022/12/08 08:20:05;;;;;;;26.30;18.60;;;1.00;99.90;;;;;;4977139;28;20211;-82
2022/12/08 08:22:31;;;;;;;25.60;19.03;;;1.00;99.90;;;;;;4975261;28;20602;-83
2022/12/08 08:24:57;;;;;;;25.07;18.50;;;1.10;99.90;;;;;;4972197;28;20207;-82
2022/12/08 08:27:23;;;;;;;25.40;18.70;;;1.10;99.90;;;;;;4973693;28;20226;-83
2022/12/08 08:29:49;;;;;;;23.93;17.63;;;1.20;99.90;;;;;;4974253;28;20203;-82
2022/12/08 08:32:15;;;;;;;23.23;18.03;;;1.20;99.90;;;;;;4974160;28;20278;-84
2022/12/08 08:34:41;;;;;;;22.67;17.77;;;1.30;99.90;;;;;;4973853;28;20203;-83
2022/12/08 08:37:06;;;;;;;23.77;18.70;;;1.30;99.90;;;;;;4977127;28;20876;-83
2022/12/08 08:39:32;;;;;;;27.73;17.97;;;1.40;99.90;;;;;;4976117;28;20187;-83
2022/12/08 08:41:58;;;;;;;24.83;17.70;;;1.30;99.90;;;;;;4981934;28;20271;-84
2022/12/08 08:44:24;;;;;;;24.73;18.73;;;1.50;99.90;;;;;;4978096;28;20370;-82
2022/12/08 08:46:49;;;;;;;26.57;18.47;;;1.40;99.90;;;;;;4977998;28;20684;-84
2022/12/08 08:49:15;;;;;;;23.20;18.10;;;1.60;99.90;;;;;;4977383;28;20198;-85
2022/12/08 08:51:41;;;;;;;24.77;17.83;;;1.50;99.90;;;;;;4979995;28;20222;-82
2022/12/08 08:54:06;;;;;;;23.27;16.73;;;1.50;99.90;;;;;;4977642;28;20206;-83
2022/12/08 08:56:32;;;;;;;24.93;18.17;;;1.40;99.90;;;;;;4985052;28;20562;-83
2022/12/08 08:58:57;;;;;;;21.97;17.53;;;1.70;99.90;;;;;;4981428;28;20187;-82
2022/12/08 09:01:27;;;;;;;26.47;17.30;;;1.80;99.90;;;;;;4977980;28;20187;-83
2022/12/08 09:03:54;;;;;;;22.40;17.70;;;1.90;99.90;;;;;;4977858;28;20223;-85
2022/12/08 09:06:20;;;;;;;21.97;17.27;;;2.00;99.90;;;;;;4982306;28;20191;-82
2022/12/08 09:08:46;;;;;;;22.77;17.73;;;2.00;99.90;;;;;;4984628;28;20203;-84
2022/12/08 09:11:12;;;;;;;23.57;17.50;;;2.00;99.90;;;;;;4973949;28;20211;-82
2022/12/08 09:13:38;;;;;;;26.53;18.90;;;2.10;99.90;;;;;;4970523;28;20309;-83
2022/12/08 09:16:05;;;;;;;23.30;16.80;;;2.10;99.90;;;;;;4974931;28;20199;-82
2022/12/08 09:18:31;;;;;;;23.40;18.03;;;2.10;99.90;;;;;;4978049;28;20178;-86
2022/12/08 09:21:07;;;;;;;21.80;18.03;;;2.10;99.90;;;;;;4976062;28;20286;-83
2022/12/08 09:23:34;;;;;;;24.40;17.47;;;2.10;99.90;;;;;;4972177;28;20606;-85
2022/12/08 09:25:59;;;;;;;24.70;18.07;;;2.20;99.90;;;;;;4975168;28;20199;-84
2022/12/08 09:28:25;;;;;;;21.10;17.50;;;2.20;99.90;;;;;;4972625;28;20267;-83
2022/12/08 09:30:51;;;;;;;21.03;17.20;;;2.30;99.90;;;;;;4973412;28;20294;-83
2022/12/08 09:33:17;;;;;;;20.17;16.80;;;2.30;99.90;;;;;;4979069;28;20230;-83
2022/12/08 09:35:43;;;;;;;27.07;16.83;;;2.40;99.90;;;;;;4976814;28;20602;-83
2022/12/08 09:38:08;;;;;;;23.27;18.00;;;2.30;99.90;;;;;;4973295;28;20194;-84
2022/12/08 09:40:45;;;;;;;22.47;17.73;;;2.30;99.90;;;;;;4975604;28;20199;-85
2022/12/08 09:43:34;;;;;;;27.40;19.87;;;2.30;99.90;;;;;;4976047;28;20222;-84
2022/12/08 09:46:03;;;;;;;25.07;20.57;;;2.10;99.90;;;;;;4973071;28;20672;-83
2022/12/08 09:48:37;;;;;;;24.57;20.60;;;2.10;99.90;;;;;;4973027;28;20220;-84
2022/12/08 09:51:04;;;;;;;29.43;22.90;;;2.30;99.90;;;;;;4974840;28;20210;-82
2022/12/08 09:53:47;;;;;;;25.07;19.93;;;2.40;99.90;;;;;;4976185;28;20215;-83
2022/12/08 09:56:17;;;;;;;24.83;19.40;;;2.50;99.90;;;;;;4976753;28;20202;-83
2022/12/08 09:58:55;;;;;;;24.87;19.87;;;2.60;99.90;;;;;;4974601;28;20680;-81
2022/12/08 10:01:22;;;;;;;25.77;18.47;;;2.80;99.90;;;;;;4973896;28;20211;-85
2022/12/08 10:03:48;;;;;;;25.33;18.70;;;2.70;99.90;;;;;;4975300;28;20217;-82
2022/12/08 10:06:41;;;;;;;27.07;20.30;;;2.70;99.90;;;;;;4972318;28;20273;-83
2022/12/08 10:09:37;;;;;;;25.00;19.67;;;2.60;99.90;;;;;;4971977;28;20195;-83
2022/12/08 10:12:27;;;;;;;26.00;20.43;;;2.60;99.90;;;;;;4970074;28;20199;-83
2022/12/08 10:15:09;;;;;;;28.00;20.47;;;2.50;99.90;;;;;;4976121;28;20242;-84
2022/12/08 10:17:39;;;;;;;26.07;20.37;;;2.60;99.90;;;;;;4971525;28;20218;-86
2022/12/08 10:20:32;;;;;;;28.73;21.10;;;2.60;99.90;;;;;;4967635;28;20210;-84
2022/12/08 10:23:23;;;;;;;23.30;19.70;;;2.60;99.90;;;;;;4971963;28;20629;-84
2022/12/08 10:26:00;;;;;;;25.50;20.50;;;2.80;99.90;;;;;;4974854;28;20231;-84
2022/12/08 10:28:26;;;;;;;25.20;19.17;;;2.90;99.90;;;;;;4969281;28;20402;-85
2022/12/08 10:30:51;;;;;;;25.07;20.17;;;3.00;99.90;;;;;;4982516;28;20207;-86
2022/12/08 10:33:20;;;;;;;26.37;19.50;;;3.10;99.90;;;;;;4982641;28;20940;-84
2022/12/08 10:35:47;;;;;;;26.27;20.57;;;3.10;99.90;;;;;;4980904;28;20226;-85
2022/12/08 10:38:17;;;;;;;27.10;20.37;;;2.90;99.90;;;;;;4978519;28;20197;-83
2022/12/08 10:40:44;;;;;;;25.33;19.40;;;2.90;99.90;;;;;;4968288;28;20798;-81
2022/12/08 10:43:17;;;;;;;26.53;19.67;;;3.00;99.90;;;;;;4967433;28;21044;-83
2022/12/08 10:45:43;;;;;;;28.87;20.73;;;3.10;99.90;;;;;;4969897;28;20213;-84
2022/12/08 10:48:22;;;;;;;24.57;20.37;;;3.20;99.90;;;;;;4968662;28;20244;-84
2022/12/08 10:50:53;;;;;;;25.17;20.03;;;3.00;99.90;;;;;;4969695;28;20219;-84
2022/12/08 10:53:22;;;;;;;29.07;21.13;;;2.80;99.90;;;;;;4966459;28;20214;-84
2022/12/08 10:55:50;;;;;;;26.80;19.03;;;2.70;99.90;;;;;;4969724;28;20210;-83
2022/12/08 10:58:48;;;;;;;28.03;20.63;;;2.90;99.90;;;;;;4971307;28;20203;-83
2022/12/08 11:01:20;;;;;;;24.00;19.30;;;3.10;99.90;;;;;;4961889;28;20214;-84
2022/12/08 11:04:04;;;;;;;26.87;18.50;;;3.10;99.90;;;;;;4967320;28;20215;-84
2022/12/08 11:06:36;;;;;;;24.53;18.67;;;3.20;99.90;;;;;;4972241;28;20673;-83
2022/12/08 11:09:14;;;;;;;24.20;18.13;;;3.30;99.90;;;;;;4974913;28;21267;-85
2022/12/08 11:11:47;;;;;;;23.53;19.63;;;3.20;99.90;;;;;;4973135;28;20210;-83
2022/12/08 11:14:18;;;;;;;25.37;19.83;;;3.20;99.90;;;;;;4980759;28;20329;-84
2022/12/08 11:16:44;;;;;;;27.87;21.47;;;3.10;99.90;;;;;;4983174;28;20203;-83
2022/12/08 11:19:16;;;;;;;28.13;20.90;;;3.20;99.90;;;;;;4982799;28;20221;-86
2022/12/08 11:21:43;;;;;;;26.43;19.97;;;3.10;99.90;;;;;;4982133;28;20197;-83
2022/12/08 11:24:27;;;;;;;28.03;21.50;;;3.10;99.90;;;;;;4969446;28;20226;-83
2022/12/08 11:27:01;;;;;;;24.60;19.93;;;3.20;99.90;;;;;;4970300;28;20640;-83
2022/12/08 11:29:29;;;;;;;28.57;19.90;;;3.40;99.90;;;;;;4969183;28;20195;-85
2022/12/08 11:32:12;;;;;;;24.70;19.40;;;3.20;99.90;;;;;;4967300;28;20247;-83
2022/12/08 11:34:50;;;;;;;26.43;20.07;;;3.40;99.90;;;;;;4967248;28;20248;-82
2022/12/08 11:37:27;;;;;;;24.00;20.23;;;3.60;99.90;;;;;;4966925;28;20182;-83
2022/12/08 11:39:56;;;;;;;25.33;18.93;;;3.60;99.90;;;;;;4973861;28;20195;-84
2022/12/08 11:42:29;;;;;;;20.43;18.23;;;3.40;99.90;;;;;;4972535;28;20236;-82
2022/12/08 11:45:19;;;;;;;24.63;19.20;;;3.60;99.90;;;;;;4970383;28;20222;-85
2022/12/08 11:48:21;;;;;;;24.80;18.73;;;3.70;99.90;;;;;;4974185;28;20211;-84
2022/12/08 11:50:56;;;;;;;23.13;18.60;;;3.90;99.90;;;;;;4972767;28;20818;-84
2022/12/08 11:53:31;;;;;;;18.83;15.77;;;4.00;99.90;;;;;;4981993;28;20257;-82
2022/12/08 11:56:04;;;;;;;17.53;15.13;;;3.90;99.90;;;;;;4969606;28;20198;-84
2022/12/08 11:58:42;;;;;;;17.50;15.13;;;3.70;99.90;;;;;;4972621;28;20187;-83
2022/12/08 12:01:22;;;;;;;18.87;16.10;;;3.70;99.90;;;;;;4969700;28;20237;-85
2022/12/08 12:04:16;;;;;;;16.90;14.67;;;3.60;99.90;;;;;;4970059;28;20238;-83
2022/12/08 12:06:44;;;;;;;19.20;15.20;;;3.70;99.90;;;;;;4979732;28;20214;-82
2022/12/08 12:09:33;;;;;;;19.83;14.93;;;3.60;99.90;;;;;;4971676;28;20201;-84
2022/12/08 12:12:13;;;;;;;19.13;13.90;;;3.90;99.90;;;;;;4973817;28;20190;-84
2022/12/08 12:14:57;;;;;;;16.80;13.60;;;4.20;99.90;;;;;;4975150;28;20215;-83
2022/12/08 12:17:34;;;;;;;17.70;15.23;;;4.00;99.90;;;;;;4976792;28;20199;-83
2022/12/08 12:20:08;;;;;;;14.63;13.10;;;4.00;99.90;;;;;;4976233;28;20217;-84
2022/12/08 12:22:36;;;;;;;15.13;12.70;;;4.00;99.90;;;;;;4976538;28;20191;-83
2022/12/08 12:25:03;;;;;;;14.37;12.60;;;3.80;99.90;;;;;;4974348;28;20199;-84
2022/12/08 12:27:36;;;;;;;15.53;12.20;;;3.90;99.90;;;;;;4974974;28;20191;-83
2022/12/08 12:30:07;;;;;;;11.50;10.40;;;3.80;99.90;;;;;;4977957;28;20214;-85
2022/12/08 12:32:51;;;;;;;12.27;10.83;;;3.80;99.90;;;;;;4974265;28;20317;-83
2022/12/08 12:35:34;;;;;;;10.73;9.60;;;3.90;99.90;;;;;;4972674;28;20270;-84
2022/12/08 12:41:11;;;;;;;11.03;9.17;;;4.20;97.40;;;;;;4975664;28;20277;-86
2022/12/08 12:43:37;;;;;;;10.47;8.40;;;4.20;97.30;;;;;;4975737;28;20207;-85
2022/12/08 12:46:21;;;;;;;11.37;8.80;;;4.00;97.10;;;;;;4975715;28;20210;-84
2022/12/08 12:48:48;;;;;;;11.57;9.47;;;4.00;98.40;;;;;;4987419;28;20734;-85
2022/12/08 12:51:41;;;;;;;10.33;9.20;;;3.90;98.20;;;;;;4973165;28;20458;-87
2022/12/08 12:54:24;;;;;;;10.87;9.50;;;3.90;98.20;;;;;;4968608;28;20226;-84
2022/12/08 12:56:53;;;;;;;10.63;9.00;;;4.00;98.80;;;;;;4976025;28;20195;-84
2022/12/08 12:59:43;;;;;;;12.57;9.83;;;3.90;98.30;;;;;;4974370;28;20269;-84
2022/12/08 13:02:37;;;;;;;12.00;9.13;;;3.90;99.90;;;;;;4973021;28;20573;-83
2022/12/08 13:05:25;;;;;;;9.70;8.70;;;4.20;98.40;;;;;;4970914;28;20269;-86
2022/12/08 13:08:06;;;;;;;10.77;9.67;;;4.20;97.00;;;;;;4971877;28;20201;-84